createdAt,value
2018-05-16T00:00:36.841Z,20.51
2018-05-16T00:01:38.658Z,20.61
2018-05-16T00:02:36.750Z,20.69
2018-05-16T00:03:36.804Z,20.68
2018-05-16T00:04:36.802Z,20.57
2018-05-16T00:05:36.799Z,20.44
2018-05-16T00:06:36.808Z,20.50
2018-05-16T00:07:36.772Z,20.31
2018-05-16T00:08:38.602Z,20.30
2018-05-16T00:09:36.818Z,20.35
2018-05-16T00:10:36.797Z,20.34
2018-05-16T00:11:36.808Z,20.35
2018-05-16T00:12:36.833Z,20.42
2018-05-16T00:14:36.817Z,20.26
2018-05-16T00:15:36.795Z,20.20
2018-05-16T00:16:36.825Z,20.19
2018-05-16T00:17:36.837Z,20.04
2018-05-16T00:18:36.800Z,20.02
2018-05-16T00:19:36.812Z,19.80
2018-05-16T00:20:36.833Z,19.82
2018-05-16T00:21:36.834Z,19.85
2018-05-16T00:22:37.079Z,19.89
2018-05-16T00:23:36.812Z,19.92
2018-05-16T00:24:38.611Z,19.86
2018-05-16T00:25:36.852Z,19.97
2018-05-16T00:26:36.854Z,20.04
2018-05-16T00:27:36.845Z,20.04
2018-05-16T00:28:36.817Z,20.04
2018-05-16T00:29:36.887Z,19.95
2018-05-16T00:30:36.798Z,19.89
2018-05-16T00:31:36.794Z,19.86
2018-05-16T00:32:36.788Z,19.80
2018-05-16T00:33:36.808Z,19.64
2018-05-16T00:34:36.759Z,19.47
2018-05-16T00:35:36.810Z,19.45
2018-05-16T00:36:36.778Z,19.61
2018-05-16T00:37:36.800Z,19.62
2018-05-16T00:38:43.158Z,19.83
2018-05-16T00:39:36.802Z,19.70
2018-05-16T00:40:36.811Z,19.82
2018-05-16T00:41:36.803Z,19.79
2018-05-16T00:42:36.819Z,19.45
2018-05-16T00:43:36.819Z,19.32
2018-05-16T00:44:36.848Z,19.12
2018-05-16T00:46:36.867Z,19.13
2018-05-16T00:47:36.843Z,19.10
2018-05-16T00:48:36.874Z,19.07
2018-05-16T00:49:36.442Z,19.25
2018-05-16T00:50:36.822Z,19.30
2018-05-16T00:51:36.819Z,19.30
2018-05-16T00:52:36.843Z,19.02
2018-05-16T00:53:36.870Z,18.72
2018-05-16T00:54:36.818Z,18.68
2018-05-16T00:55:36.452Z,18.60
2018-05-16T00:56:36.825Z,18.50
2018-05-16T00:57:36.878Z,18.57
2018-05-16T00:58:36.811Z,18.46
2018-05-16T00:59:36.821Z,18.44
2018-05-16T01:00:36.814Z,18.60
2018-05-16T01:01:36.825Z,18.59
2018-05-16T01:02:36.822Z,18.65
2018-05-16T01:03:36.805Z,18.72
2018-05-16T01:04:36.845Z,18.75
2018-05-16T01:05:36.837Z,18.78
2018-05-16T01:06:36.815Z,18.89
2018-05-16T01:07:36.818Z,18.62
2018-05-16T01:08:42.849Z,18.66
2018-05-16T01:09:36.836Z,18.62
2018-05-16T01:10:36.831Z,18.68
2018-05-16T01:11:36.870Z,18.57
2018-05-16T01:12:36.859Z,18.64
2018-05-16T01:13:36.875Z,18.59
2018-05-16T01:14:36.878Z,18.64
2018-05-16T01:15:36.828Z,18.59
2018-05-16T01:16:36.835Z,18.79
2018-05-16T01:17:36.872Z,18.74
2018-05-16T01:18:36.853Z,18.76
2018-05-16T01:19:36.840Z,18.66
2018-05-16T01:20:37.097Z,18.66
2018-05-16T01:21:36.826Z,18.54
2018-05-16T01:22:36.873Z,18.46
2018-05-16T01:23:36.849Z,18.17
2018-05-16T01:25:37.100Z,18.42
2018-05-16T01:26:36.827Z,18.41
2018-05-16T01:27:36.807Z,18.36
2018-05-16T01:28:36.798Z,18.34
2018-05-16T01:29:36.815Z,18.29
2018-05-16T01:30:36.817Z,18.23
2018-05-16T01:31:36.796Z,18.38
2018-05-16T01:32:36.806Z,18.39
2018-05-16T01:33:36.822Z,18.26
2018-05-16T01:34:36.825Z,18.23
2018-05-16T01:35:36.816Z,18.31
2018-05-16T01:36:36.827Z,18.11
2018-05-16T01:37:36.840Z,18.19
2018-05-16T01:38:36.812Z,18.11
2018-05-16T01:39:36.853Z,18.26
2018-05-16T01:40:37.110Z,18.21
2018-05-16T01:41:36.880Z,18.14
2018-05-16T01:42:36.854Z,18.31
2018-05-16T01:43:36.890Z,18.41
2018-05-16T01:44:37.116Z,18.38
2018-05-16T01:45:36.849Z,18.31
2018-05-16T01:46:36.836Z,18.26
2018-05-16T01:47:36.890Z,18.32
2018-05-16T01:48:36.872Z,18.38
2018-05-16T01:49:36.928Z,18.23
2018-05-16T01:50:36.886Z,18.19
2018-05-16T01:51:36.887Z,18.25
2018-05-16T01:52:36.869Z,18.05
2018-05-16T01:53:36.856Z,18.21
2018-05-16T01:54:36.833Z,18.14
2018-05-16T01:55:36.810Z,18.10
2018-05-16T01:56:36.812Z,18.01
2018-05-16T01:57:37.075Z,17.95
2018-05-16T01:58:36.818Z,18.20
2018-05-16T01:59:36.805Z,18.35
2018-05-16T02:00:36.835Z,18.16
2018-05-16T02:01:36.874Z,17.96
2018-05-16T02:02:36.852Z,18.02
2018-05-16T02:03:37.106Z,17.99
2018-05-16T02:04:36.867Z,17.84
2018-05-16T02:05:36.886Z,17.80
2018-05-16T02:06:36.887Z,17.91
2018-05-16T02:07:37.105Z,17.91
2018-05-16T02:08:37.102Z,17.95
2018-05-16T02:09:37.088Z,17.54
2018-05-16T02:10:37.085Z,17.77
2018-05-16T02:11:36.896Z,17.60
2018-05-16T02:12:36.920Z,17.73
2018-05-16T02:13:36.911Z,17.53
2018-05-16T02:14:36.987Z,17.49
2018-05-16T02:15:37.088Z,17.55
2018-05-16T02:16:36.969Z,17.62
2018-05-16T02:17:36.952Z,17.58
2018-05-16T02:18:37.090Z,17.68
2018-05-16T02:19:36.937Z,17.79
2018-05-16T02:20:36.962Z,17.68
2018-05-16T02:21:36.965Z,17.47
2018-05-16T02:22:36.848Z,17.35
2018-05-16T02:23:36.925Z,17.42
2018-05-16T02:24:36.826Z,17.42
2018-05-16T02:25:36.889Z,17.35
2018-05-16T02:26:36.868Z,17.40
2018-05-16T02:27:36.825Z,17.47
2018-05-16T02:28:39.099Z,17.40
2018-05-16T02:29:36.835Z,17.33
2018-05-16T02:30:36.874Z,17.40
2018-05-16T02:31:36.889Z,17.45
2018-05-16T02:32:36.832Z,17.39
2018-05-16T02:33:36.871Z,17.36
2018-05-16T02:34:37.116Z,17.40
2018-05-16T02:35:36.899Z,17.33
2018-05-16T02:36:36.892Z,17.25
2018-05-16T02:37:36.915Z,17.24
2018-05-16T02:38:37.094Z,17.38
2018-05-16T02:39:37.098Z,17.30
2018-05-16T02:40:36.977Z,17.49
2018-05-16T02:41:36.921Z,17.42
2018-05-16T02:42:36.933Z,17.35
2018-05-16T02:43:36.895Z,17.27
2018-05-16T02:44:36.940Z,17.21
2018-05-16T02:45:36.980Z,17.22
2018-05-16T02:46:36.972Z,17.24
2018-05-16T02:47:37.284Z,17.24
2018-05-16T02:48:37.067Z,17.33
2018-05-16T02:49:37.181Z,17.27
2018-05-16T02:50:37.128Z,17.25
2018-05-16T02:51:36.839Z,17.03
2018-05-16T02:52:36.900Z,16.96
2018-05-16T02:53:36.930Z,17.09
2018-05-16T02:54:36.948Z,17.07
2018-05-16T02:55:36.943Z,17.03
2018-05-16T02:56:36.959Z,17.18
2018-05-16T02:57:36.995Z,17.05
2018-05-16T02:58:36.969Z,17.20
2018-05-16T02:59:36.979Z,17.06
2018-05-16T03:00:38.754Z,17.12
2018-05-16T03:01:36.974Z,17.15
2018-05-16T03:02:36.980Z,17.15
2018-05-16T03:03:38.753Z,17.12
2018-05-16T03:04:36.978Z,17.06
2018-05-16T03:05:36.974Z,17.14
2018-05-16T03:06:36.680Z,17.07
2018-05-16T03:07:37.012Z,17.09
2018-05-16T03:08:37.028Z,17.06
2018-05-16T03:09:37.034Z,16.87
2018-05-16T03:10:36.976Z,17.00
2018-05-16T03:11:37.006Z,16.90
2018-05-16T03:12:37.036Z,16.87
2018-05-16T03:13:42.284Z,16.91
2018-05-16T03:14:37.000Z,16.92
2018-05-16T03:15:37.044Z,16.88
2018-05-16T03:16:37.032Z,16.84
2018-05-16T03:17:37.060Z,16.98
2018-05-16T03:18:37.195Z,16.88
2018-05-16T03:19:36.906Z,16.85
2018-05-16T03:20:36.881Z,16.87
2018-05-16T03:21:36.899Z,16.99
2018-05-16T03:22:36.971Z,16.85
2018-05-16T03:23:36.918Z,16.85
2018-05-16T03:24:36.972Z,16.77
2018-05-16T03:25:36.906Z,16.90
2018-05-16T03:26:36.961Z,16.75
2018-05-16T03:27:36.953Z,16.75
2018-05-16T03:28:36.979Z,16.88
2018-05-16T03:29:36.972Z,16.90
2018-05-16T03:30:36.940Z,16.87
2018-05-16T03:31:36.977Z,16.82
2018-05-16T03:32:36.973Z,16.87
2018-05-16T03:33:37.050Z,16.78
2018-05-16T03:34:36.983Z,16.77
2018-05-16T03:35:36.999Z,16.72
2018-05-16T03:36:36.965Z,16.78
2018-05-16T03:37:37.109Z,16.72
2018-05-16T03:38:37.011Z,16.73
2018-05-16T03:39:36.997Z,16.72
2018-05-16T03:40:37.059Z,16.73
2018-05-16T03:41:37.012Z,16.77
2018-05-16T03:42:37.085Z,16.82
2018-05-16T03:43:36.982Z,16.73
2018-05-16T03:44:37.127Z,16.72
2018-05-16T03:45:37.027Z,16.78
2018-05-16T03:46:37.069Z,16.67
2018-05-16T03:47:37.235Z,16.78
2018-05-16T03:48:36.904Z,16.82
2018-05-16T03:49:36.915Z,16.73
2018-05-16T03:50:36.912Z,16.65
2018-05-16T03:51:36.983Z,16.65
2018-05-16T03:52:36.963Z,16.69
2018-05-16T03:53:36.907Z,16.69
2018-05-16T03:54:36.913Z,16.65
2018-05-16T03:55:36.913Z,16.62
2018-05-16T03:56:36.974Z,16.69
2018-05-16T03:57:36.974Z,16.73
2018-05-16T03:58:36.944Z,16.65
2018-05-16T03:59:37.064Z,16.60
2018-05-16T04:00:37.138Z,16.42
2018-05-16T04:01:37.069Z,16.47
2018-05-16T04:02:37.055Z,16.47
2018-05-16T04:03:37.000Z,16.52
2018-05-16T04:04:37.019Z,16.55
2018-05-16T04:05:37.058Z,16.67
2018-05-16T04:06:37.122Z,16.63
2018-05-16T04:07:37.065Z,16.67
2018-05-16T04:08:36.905Z,16.69
2018-05-16T04:09:38.794Z,16.63
2018-05-16T04:10:37.055Z,16.52
2018-05-16T04:11:36.997Z,16.40
2018-05-16T04:12:36.966Z,16.40
2018-05-16T04:13:37.108Z,16.44
2018-05-16T04:14:36.331Z,16.50
2018-05-16T04:15:37.046Z,16.57
2018-05-16T04:16:37.062Z,16.54
2018-05-16T04:17:37.045Z,16.65
2018-05-16T04:18:36.971Z,16.57
2018-05-16T04:19:37.058Z,16.63
2018-05-16T04:20:37.057Z,16.65
2018-05-16T04:21:37.068Z,16.66
2018-05-16T04:22:37.078Z,16.60
2018-05-16T04:23:36.994Z,16.66
2018-05-16T04:24:37.522Z,16.65
2018-05-16T04:25:37.175Z,16.63
2018-05-16T04:26:37.122Z,16.66
2018-05-16T04:27:37.096Z,16.69
2018-05-16T04:28:37.358Z,16.63
2018-05-16T04:29:37.488Z,16.69
2018-05-16T04:30:36.760Z,16.67
2018-05-16T04:31:37.148Z,16.67
2018-05-16T04:32:39.001Z,16.70
2018-05-16T04:33:37.169Z,16.67
2018-05-16T04:34:37.151Z,16.70
2018-05-16T04:35:39.036Z,16.67
2018-05-16T04:36:38.953Z,16.57
2018-05-16T04:37:38.966Z,16.66
2018-05-16T04:38:37.131Z,16.70
2018-05-16T04:39:37.064Z,16.77
2018-05-16T04:40:37.667Z,16.73
2018-05-16T04:41:36.966Z,16.85
2018-05-16T04:42:36.971Z,16.90
2018-05-16T04:43:37.007Z,16.95
2018-05-16T04:44:37.006Z,16.90
2018-05-16T04:45:38.228Z,16.95
2018-05-16T04:46:37.150Z,16.73
2018-05-16T04:47:37.135Z,16.85
2018-05-16T04:48:37.567Z,16.80
2018-05-16T04:49:37.116Z,16.78
2018-05-16T04:50:37.473Z,16.73
2018-05-16T04:51:37.134Z,16.88
2018-05-16T04:52:37.150Z,16.87
2018-05-16T04:53:37.112Z,16.90
2018-05-16T04:54:37.154Z,16.87
2018-05-16T04:55:37.419Z,16.90
2018-05-16T04:56:37.136Z,16.98
2018-05-16T04:57:37.459Z,17.03
2018-05-16T04:58:37.440Z,17.03
2018-05-16T04:59:37.449Z,17.07
2018-05-16T05:00:37.429Z,17.02
2018-05-16T05:02:01.983Z,17.17
2018-05-16T05:02:37.667Z,17.14
2018-05-16T05:03:37.644Z,17.15
2018-05-16T05:04:37.433Z,17.18
2018-05-16T05:05:37.688Z,17.24
2018-05-16T05:06:37.455Z,17.14
2018-05-16T05:07:37.690Z,17.22
2018-05-16T05:08:37.312Z,17.32
2018-05-16T05:09:37.379Z,17.27
2018-05-16T05:10:37.369Z,17.28
2018-05-16T05:11:36.716Z,17.20
2018-05-16T05:12:36.733Z,17.17
2018-05-16T05:13:36.740Z,17.22
2018-05-16T05:14:36.737Z,17.30
2018-05-16T05:15:36.691Z,17.21
2018-05-16T05:16:37.373Z,17.32
2018-05-16T05:17:37.435Z,17.21
2018-05-16T05:18:36.868Z,17.35
2018-05-16T05:19:36.791Z,17.28
2018-05-16T05:20:35.833Z,17.30
2018-05-16T05:21:37.192Z,17.25
2018-05-16T05:22:36.988Z,17.25
2018-05-16T05:23:37.683Z,17.40
2018-05-16T05:24:37.202Z,17.28
2018-05-16T05:25:36.423Z,17.36
2018-05-16T05:26:36.668Z,17.33
2018-05-16T05:27:36.664Z,17.27
2018-05-16T05:28:36.447Z,17.25
2018-05-16T05:29:36.813Z,17.28
2018-05-16T05:30:36.823Z,17.38
2018-05-16T05:31:36.442Z,17.35
2018-05-16T05:32:36.846Z,17.46
2018-05-16T05:33:36.859Z,17.58
2018-05-16T05:34:36.881Z,17.53
2018-05-16T05:35:36.839Z,17.57
2018-05-16T05:36:36.992Z,17.49
2018-05-16T05:37:36.888Z,17.63
2018-05-16T05:38:36.885Z,17.63
2018-05-16T05:39:38.677Z,17.77
2018-05-16T05:40:36.770Z,17.63
2018-05-16T05:41:37.381Z,17.65
2018-05-16T05:42:36.831Z,17.53
2018-05-16T05:43:37.383Z,17.62
2018-05-16T05:44:37.694Z,17.53
2018-05-16T05:45:37.440Z,17.60
2018-05-16T05:46:37.701Z,17.65
2018-05-16T05:47:37.657Z,17.74
2018-05-16T05:48:37.700Z,17.76
2018-05-16T05:49:37.454Z,17.83
2018-05-16T05:50:37.390Z,17.74
2018-05-16T05:51:37.434Z,17.80
2018-05-16T05:52:37.452Z,17.89
2018-05-16T05:53:37.445Z,17.80
2018-05-16T05:54:37.448Z,17.81
2018-05-16T05:55:37.702Z,17.83
2018-05-16T05:56:37.708Z,17.92
2018-05-16T05:57:37.392Z,17.98
2018-05-16T05:58:37.433Z,17.98
2018-05-16T05:59:37.395Z,17.96
2018-05-16T06:00:37.205Z,17.98
2018-05-16T06:01:37.422Z,18.05
2018-05-16T06:02:37.705Z,17.99
2018-05-16T06:03:37.709Z,17.92
2018-05-16T06:04:37.418Z,17.98
2018-05-16T06:05:37.705Z,17.99
2018-05-16T06:06:37.482Z,17.99
2018-05-16T06:07:37.457Z,18.02
2018-05-16T06:08:37.711Z,18.11
2018-05-16T06:09:37.705Z,18.23
2018-05-16T06:10:37.705Z,18.29
2018-05-16T06:11:40.058Z,18.44
2018-05-16T06:12:39.506Z,18.20
2018-05-16T06:13:37.709Z,18.34
2018-05-16T06:14:37.709Z,18.21
2018-05-16T06:15:37.704Z,18.11
2018-05-16T06:16:37.488Z,18.11
2018-05-16T06:17:37.751Z,18.31
2018-05-16T06:18:37.705Z,18.11
2018-05-16T06:19:37.528Z,18.28
2018-05-16T06:20:37.478Z,18.46
2018-05-16T06:21:37.716Z,18.62
2018-05-16T06:22:38.225Z,18.69
2018-05-16T06:23:37.494Z,18.78
2018-05-16T06:24:37.212Z,18.90
2018-05-16T06:25:37.719Z,18.97
2018-05-16T06:26:37.705Z,18.99
2018-05-16T06:27:39.192Z,19.09
2018-05-16T06:28:40.010Z,19.09
2018-05-16T06:29:36.904Z,18.99
2018-05-16T06:30:37.711Z,18.91
2018-05-16T06:31:37.208Z,19.12
2018-05-16T06:32:37.604Z,19.07
2018-05-16T06:33:37.715Z,18.79
2018-05-16T06:34:37.856Z,18.78
2018-05-16T06:35:37.517Z,18.72
2018-05-16T06:36:38.019Z,18.87
2018-05-16T06:37:37.764Z,18.68
2018-05-16T06:38:37.758Z,18.79
2018-05-16T06:39:44.152Z,18.68
2018-05-16T06:40:43.440Z,18.68
2018-05-16T06:41:37.420Z,18.66
2018-05-16T06:42:37.395Z,18.64
2018-05-16T06:43:37.472Z,18.49
2018-05-16T06:44:37.435Z,18.59
2018-05-16T06:45:36.991Z,18.49
2018-05-16T06:46:37.703Z,18.56
2018-05-16T06:47:37.424Z,18.42
2018-05-16T06:48:37.724Z,18.46
2018-05-16T06:49:37.472Z,18.59
2018-05-16T06:50:37.479Z,18.54
2018-05-16T06:51:37.454Z,18.66
2018-05-16T06:52:37.725Z,18.72
2018-05-16T06:53:38.172Z,18.60
2018-05-16T06:54:51.866Z,18.59
2018-05-16T06:55:37.114Z,18.59
2018-05-16T06:56:38.077Z,18.65
2018-05-16T06:57:39.096Z,18.69
2018-05-16T06:58:38.020Z,18.71
2018-05-16T06:59:37.527Z,18.72
2018-05-16T07:00:37.537Z,18.72
2018-05-16T07:01:37.769Z,18.71
2018-05-16T07:02:37.556Z,18.74
2018-05-16T07:03:37.903Z,18.68
2018-05-16T07:04:38.012Z,18.59
2018-05-16T07:05:37.081Z,18.59
2018-05-16T07:06:37.525Z,18.59
2018-05-16T07:07:37.460Z,18.72
2018-05-16T07:08:37.775Z,18.65
2018-05-16T07:09:37.523Z,18.71
2018-05-16T07:10:37.524Z,18.68
2018-05-16T07:11:37.523Z,18.72
2018-05-16T07:12:38.192Z,18.75
2018-05-16T07:13:37.743Z,18.65
2018-05-16T07:14:37.499Z,18.69
2018-05-16T07:15:37.544Z,18.78
2018-05-16T07:16:37.739Z,18.76
2018-05-16T07:17:37.537Z,18.69
2018-05-16T07:18:37.547Z,18.84
2018-05-16T07:19:37.551Z,18.86
2018-05-16T07:20:37.739Z,18.78
2018-05-16T07:21:38.016Z,18.89
2018-05-16T07:22:37.494Z,18.87
2018-05-16T07:23:37.483Z,18.82
2018-05-16T07:24:39.273Z,18.86
2018-05-16T07:25:37.496Z,18.72
2018-05-16T07:26:37.740Z,18.74
2018-05-16T07:27:37.466Z,18.76
2018-05-16T07:28:37.485Z,18.82
2018-05-16T07:29:37.578Z,18.76
2018-05-16T07:30:37.743Z,18.82
2018-05-16T07:31:37.730Z,18.84
2018-05-16T07:32:37.483Z,18.84
2018-05-16T07:33:37.779Z,19.05
2018-05-16T07:34:37.542Z,19.07
2018-05-16T07:35:37.020Z,18.96
2018-05-16T07:36:37.054Z,18.90
2018-05-16T07:37:39.368Z,18.86
2018-05-16T07:38:37.564Z,18.86
2018-05-16T07:39:37.756Z,18.87
2018-05-16T07:40:38.129Z,18.99
2018-05-16T07:41:38.067Z,18.97
2018-05-16T07:42:37.593Z,18.90
2018-05-16T07:43:37.571Z,18.84
2018-05-16T07:44:38.022Z,18.68
2018-05-16T07:45:37.446Z,18.74
2018-05-16T07:46:38.044Z,18.84
2018-05-16T07:47:37.544Z,18.82
2018-05-16T07:48:38.027Z,18.89
2018-05-16T07:49:37.463Z,18.79
2018-05-16T07:50:37.747Z,18.79
2018-05-16T07:51:37.746Z,18.87
2018-05-16T07:52:38.322Z,18.86
2018-05-16T07:53:38.051Z,18.91
2018-05-16T07:54:37.749Z,19.06
2018-05-16T07:55:37.486Z,19.12
2018-05-16T07:56:38.048Z,19.07
2018-05-16T07:57:39.896Z,18.91
2018-05-16T07:58:37.718Z,18.90
2018-05-16T07:59:37.472Z,19.05
2018-05-16T08:00:37.506Z,19.07
2018-05-16T08:01:37.528Z,19.27
2018-05-16T08:02:37.541Z,19.21
2018-05-16T08:03:37.801Z,19.28
2018-05-16T08:04:37.789Z,19.21
2018-05-16T08:05:37.753Z,19.28
2018-05-16T08:06:37.477Z,19.24
2018-05-16T08:07:37.533Z,19.25
2018-05-16T08:08:37.620Z,19.38
2018-05-16T08:09:37.763Z,19.30
2018-05-16T08:10:37.780Z,19.28
2018-05-16T08:11:37.730Z,19.39
2018-05-16T08:12:37.795Z,19.40
2018-05-16T08:13:37.613Z,19.31
2018-05-16T08:14:37.771Z,19.28
2018-05-16T08:15:37.527Z,19.31
2018-05-16T08:16:38.386Z,19.09
2018-05-16T08:17:38.225Z,19.23
2018-05-16T08:18:38.154Z,19.25
2018-05-16T08:19:37.561Z,19.32
2018-05-16T08:20:37.753Z,19.46
2018-05-16T08:21:37.888Z,19.61
2018-05-16T08:22:37.757Z,19.40
2018-05-16T08:23:37.800Z,19.24
2018-05-16T08:24:37.789Z,19.32
2018-05-16T08:25:37.807Z,19.60
2018-05-16T08:26:37.487Z,19.64
2018-05-16T08:27:37.720Z,19.72
2018-05-16T08:28:38.061Z,19.78
2018-05-16T08:29:37.521Z,19.58
2018-05-16T08:30:37.769Z,19.55
2018-05-16T08:31:37.527Z,19.52
2018-05-16T08:32:40.039Z,19.47
2018-05-16T08:33:38.047Z,19.70
2018-05-16T08:34:37.988Z,19.86
2018-05-16T08:35:37.591Z,20.04
2018-05-16T08:36:37.591Z,20.17
2018-05-16T08:37:37.721Z,20.04
2018-05-16T08:38:37.813Z,20.00
2018-05-16T08:39:38.213Z,20.15
2018-05-16T08:40:37.765Z,20.34
2018-05-16T08:41:37.775Z,20.16
2018-05-16T08:42:38.954Z,20.15
2018-05-16T08:43:38.079Z,20.05
2018-05-16T08:44:38.416Z,20.13
2018-05-16T08:45:37.771Z,20.27
2018-05-16T08:46:37.732Z,20.31
2018-05-16T08:47:37.762Z,20.27
2018-05-16T08:48:37.748Z,20.48
2018-05-16T08:49:37.781Z,20.34
2018-05-16T08:50:38.179Z,20.42
2018-05-16T08:51:37.650Z,20.27
2018-05-16T08:52:40.157Z,20.17
2018-05-16T08:53:38.330Z,20.35
2018-05-16T08:54:37.463Z,20.46
2018-05-16T08:55:37.828Z,20.44
2018-05-16T08:56:37.541Z,20.33
2018-05-16T08:57:37.588Z,20.44
2018-05-16T08:58:38.294Z,20.54
2018-05-16T08:59:37.793Z,20.53
2018-05-16T09:00:37.779Z,20.78
2018-05-16T09:01:38.234Z,20.82
2018-05-16T09:02:37.591Z,20.98
2018-05-16T09:03:37.636Z,21.01
2018-05-16T09:04:37.751Z,20.69
2018-05-16T09:05:37.315Z,20.83
2018-05-16T09:06:37.572Z,20.83
2018-05-16T09:07:38.504Z,20.73
2018-05-16T09:08:38.120Z,20.79
2018-05-16T09:09:38.058Z,20.81
2018-05-16T09:10:37.778Z,20.93
2018-05-16T09:12:38.122Z,20.69
2018-05-16T09:13:37.983Z,20.79
2018-05-16T09:14:37.964Z,20.88
2018-05-16T09:15:37.814Z,20.82
2018-05-16T09:16:38.056Z,20.76
2018-05-16T09:17:37.270Z,20.73
2018-05-16T09:18:37.666Z,20.68
2018-05-16T09:19:37.906Z,21.00
2018-05-16T09:20:37.819Z,21.15
2018-05-16T09:21:37.792Z,21.22
2018-05-16T09:22:38.123Z,21.22
2018-05-16T09:23:37.737Z,21.03
2018-05-16T09:24:38.288Z,21.22
2018-05-16T09:25:38.240Z,21.43
2018-05-16T09:26:37.825Z,21.53
2018-05-16T09:27:37.361Z,21.53
2018-05-16T09:28:37.768Z,21.49
2018-05-16T09:29:37.768Z,21.26
2018-05-16T09:30:38.249Z,21.26
2018-05-16T09:31:37.749Z,21.31
2018-05-16T09:32:38.111Z,21.36
2018-05-16T09:33:37.971Z,21.34
2018-05-16T09:34:38.357Z,21.26
2018-05-16T09:35:38.212Z,20.90
2018-05-16T09:36:38.321Z,20.88
2018-05-16T09:37:38.282Z,20.96
2018-05-16T09:38:38.349Z,20.91
2018-05-16T09:39:38.663Z,21.00
2018-05-16T09:40:37.790Z,20.90
2018-05-16T09:41:38.290Z,20.96
2018-05-16T09:42:38.229Z,21.00
2018-05-16T09:43:38.290Z,20.93
2018-05-16T09:44:38.314Z,20.85
2018-05-16T09:45:37.377Z,20.85
2018-05-16T09:46:37.427Z,21.11
2018-05-16T09:47:37.429Z,21.13
2018-05-16T09:48:38.088Z,21.27
2018-05-16T09:49:38.333Z,21.27
2018-05-16T09:50:40.110Z,21.27
2018-05-16T09:51:38.593Z,21.38
2018-05-16T09:52:37.840Z,21.48
2018-05-16T09:53:39.050Z,21.56
2018-05-16T09:54:37.789Z,21.56
2018-05-16T09:55:38.095Z,21.43
2018-05-16T09:56:38.083Z,21.36
2018-05-16T09:57:38.120Z,21.12
2018-05-16T09:58:38.106Z,21.45
2018-05-16T09:59:38.764Z,21.34
2018-05-16T10:00:38.352Z,21.43
2018-05-16T10:01:38.245Z,21.52
2018-05-16T10:02:38.142Z,21.82
2018-05-16T10:03:38.800Z,21.99
2018-05-16T10:04:38.355Z,22.12
2018-05-16T10:06:38.038Z,21.94
2018-05-16T10:07:38.057Z,22.11
2018-05-16T10:08:38.260Z,22.20
2018-05-16T10:09:38.380Z,22.09
2018-05-16T10:10:38.673Z,21.79
2018-05-16T10:11:38.258Z,21.66
2018-05-16T10:12:38.655Z,21.91
2018-05-16T10:13:38.692Z,21.91
2018-05-16T10:14:38.329Z,21.77
2018-05-16T10:15:38.117Z,21.52
2018-05-16T10:16:38.050Z,21.55
2018-05-16T10:17:38.168Z,21.96
2018-05-16T10:18:38.095Z,22.04
2018-05-16T10:19:38.183Z,22.05
2018-05-16T10:20:38.303Z,22.20
2018-05-16T10:21:39.816Z,22.19
2018-05-16T10:22:38.357Z,22.44
2018-05-16T10:23:38.383Z,22.51
2018-05-16T10:24:38.466Z,22.33
2018-05-16T10:25:37.849Z,22.19
2018-05-16T10:26:38.309Z,22.31
2018-05-16T10:27:38.129Z,22.49
2018-05-16T10:28:38.366Z,22.67
2018-05-16T10:29:38.090Z,22.64
2018-05-16T10:30:38.106Z,22.60
2018-05-16T10:31:38.355Z,22.49
2018-05-16T10:32:38.075Z,22.04
2018-05-16T10:33:38.334Z,22.14
2018-05-16T10:34:38.419Z,22.33
2018-05-16T10:35:38.649Z,22.54
2018-05-16T10:36:37.746Z,22.56
2018-05-16T10:37:37.848Z,22.52
2018-05-16T10:38:38.043Z,22.33
2018-05-16T10:39:37.803Z,22.31
2018-05-16T10:40:38.275Z,22.41
2018-05-16T10:41:38.307Z,22.26
2018-05-16T10:42:38.093Z,22.60
2018-05-16T10:43:38.371Z,22.64
2018-05-16T10:44:38.600Z,22.79
2018-05-16T10:45:37.514Z,22.78
2018-05-16T10:46:38.055Z,22.67
2018-05-16T10:47:38.313Z,22.56
2018-05-16T10:48:38.322Z,22.60
2018-05-16T10:49:38.216Z,22.82
2018-05-16T10:50:38.621Z,22.88
2018-05-16T10:51:37.780Z,22.91
2018-05-16T10:52:38.654Z,22.97
2018-05-16T10:53:38.290Z,23.12
2018-05-16T10:54:38.361Z,23.23
2018-05-16T10:55:38.810Z,23.25
2018-05-16T10:56:38.390Z,23.42
2018-05-16T10:57:37.707Z,23.59
2018-05-16T10:58:38.621Z,23.74
2018-05-16T10:59:38.323Z,23.94
2018-05-16T11:00:38.109Z,23.93
2018-05-16T11:01:38.093Z,24.14
2018-05-16T11:02:38.359Z,24.02
2018-05-16T11:03:38.323Z,24.14
2018-05-16T11:04:38.393Z,24.23
2018-05-16T11:05:38.289Z,23.60
2018-05-16T11:06:38.767Z,23.72
2018-05-16T11:07:38.153Z,23.96
2018-05-16T11:08:38.615Z,23.79
2018-05-16T11:09:38.289Z,23.78
2018-05-16T11:10:38.129Z,23.62
2018-05-16T11:11:38.295Z,23.59
2018-05-16T11:12:38.356Z,23.52
2018-05-16T11:13:38.620Z,23.52
2018-05-16T11:14:38.631Z,23.59
2018-05-16T11:15:38.604Z,23.69
2018-05-16T11:16:38.551Z,23.53
2018-05-16T11:17:38.138Z,23.47
2018-05-16T11:18:38.291Z,23.22
2018-05-16T11:19:38.832Z,23.21
2018-05-16T11:20:38.780Z,23.37
2018-05-16T11:21:38.289Z,23.49
2018-05-16T11:22:38.297Z,23.59
2018-05-16T11:23:38.367Z,23.32
2018-05-16T11:24:38.269Z,23.12
2018-05-16T11:25:38.808Z,23.50
2018-05-16T11:26:38.456Z,23.63
2018-05-16T11:27:38.037Z,23.64
2018-05-16T11:28:38.293Z,23.59
2018-05-16T11:29:38.300Z,23.82
2018-05-16T11:30:38.406Z,23.84
2018-05-16T11:31:38.652Z,23.84
2018-05-16T11:32:38.202Z,23.99
2018-05-16T11:33:38.643Z,23.94
2018-05-16T11:34:38.303Z,23.94
2018-05-16T11:35:38.299Z,24.09
2018-05-16T11:37:37.899Z,23.84
2018-05-16T11:38:38.342Z,23.84
2018-05-16T11:39:40.224Z,23.87
2018-05-16T11:40:38.322Z,24.04
2018-05-16T11:41:38.328Z,23.90
2018-05-16T11:42:39.008Z,23.74
2018-05-16T11:43:38.841Z,23.64
2018-05-16T11:44:38.108Z,23.54
2018-05-16T11:45:38.957Z,23.68
2018-05-16T11:46:38.380Z,23.68
2018-05-16T11:47:38.304Z,23.77
2018-05-16T11:48:38.927Z,23.90
2018-05-16T11:49:38.846Z,24.19
2018-05-16T11:50:38.847Z,24.56
2018-05-16T11:51:38.469Z,24.42
2018-05-16T11:52:38.352Z,24.82
2018-05-16T11:53:40.335Z,24.60
2018-05-16T11:54:40.137Z,24.36
2018-05-16T11:55:38.699Z,24.31
2018-05-16T11:56:38.222Z,24.48
2018-05-16T11:57:39.184Z,24.77
2018-05-16T11:58:39.203Z,24.83
2018-05-16T11:59:38.409Z,24.82
2018-05-16T12:00:38.390Z,25.04
2018-05-16T12:01:38.932Z,25.14
2018-05-16T12:02:39.253Z,24.94
2018-05-16T12:03:38.425Z,24.68
2018-05-16T12:04:38.833Z,24.64
2018-05-16T12:05:38.043Z,24.31
2018-05-16T12:06:40.444Z,24.49
2018-05-16T12:07:38.963Z,24.77
2018-05-16T12:08:38.884Z,24.64
2018-05-16T12:09:39.086Z,24.55
2018-05-16T12:10:39.178Z,24.44
2018-05-16T12:11:39.181Z,24.23
2018-05-16T12:12:39.171Z,24.00
2018-05-16T12:13:38.817Z,24.16
2018-05-16T12:14:39.309Z,23.82
2018-05-16T12:15:39.160Z,24.18
2018-05-16T12:16:38.929Z,24.30
2018-05-16T12:17:39.197Z,24.33
2018-05-16T12:18:38.673Z,24.63
2018-05-16T12:19:38.327Z,24.70
2018-05-16T12:20:38.931Z,24.89
2018-05-16T12:21:39.458Z,24.98
2018-05-16T12:22:40.873Z,25.16
2018-05-16T12:23:38.161Z,25.01
2018-05-16T12:24:38.862Z,25.12
2018-05-16T12:25:39.161Z,25.02
2018-05-16T12:26:38.130Z,24.84
2018-05-16T12:27:38.823Z,24.84
2018-05-16T12:28:38.908Z,24.77
2018-05-16T12:29:39.226Z,24.74
2018-05-16T12:30:38.060Z,24.67
2018-05-16T12:31:39.175Z,24.77
2018-05-16T12:32:38.655Z,24.63
2018-05-16T12:33:38.826Z,24.59
2018-05-16T12:34:39.285Z,24.53
2018-05-16T12:35:38.872Z,24.80
2018-05-16T12:36:38.636Z,24.93
2018-05-16T12:37:39.416Z,25.12
2018-05-16T12:38:41.633Z,25.12
2018-05-16T12:39:38.873Z,24.80
2018-05-16T12:40:38.912Z,24.79
2018-05-16T12:41:39.167Z,25.01
2018-05-16T12:42:39.233Z,25.04
2018-05-16T12:43:40.689Z,25.08
2018-05-16T12:44:38.694Z,24.84
2018-05-16T12:45:40.620Z,24.87
2018-05-16T12:46:38.941Z,24.94
2018-05-16T12:47:38.932Z,25.20
2018-05-16T12:48:38.712Z,25.56
2018-05-16T12:49:38.799Z,25.54
2018-05-16T12:50:39.179Z,25.67
2018-05-16T12:51:38.877Z,25.56
2018-05-16T12:52:39.176Z,25.39
2018-05-16T12:53:38.880Z,25.42
2018-05-16T12:54:38.699Z,25.46
2018-05-16T12:55:38.767Z,24.99
2018-05-16T12:56:38.764Z,24.90
2018-05-16T12:57:38.774Z,25.05
2018-05-16T12:58:40.679Z,24.86